sensor_id;sensor_type;location;lat;lon;timestamp;P1;durP1;ratioP1;P2;durP2;ratioP2
75680;SDS011;64294;49.176;16.626;2024-01-15T00:00:18;12.50;;;4.97;;
75680;SDS011;64294;49.176;16.626;2024-01-15T00:02:43;13.15;;;5.28;;
75680;SDS011;64294;49.176;16.626;2024-01-15T00:05:10;13.00;;;5.30;;
75680;SDS011;64294;49.176;16.626;2024-01-15T00:07:36;13.45;;;5.40;;
75680;SDS011;64294;49.176;16.626;2024-01-15T00:10:01;12.93;;;5.57;;
75680;SDS011;64294;49.176;16.626;2024-01-15T00:12:27;14.32;;;5.95;;
75680;SDS011;64294;49.176;16.626;2024-01-15T00:14:55;13.18;;;5.18;;
75680;SDS011;64294;49.176;16.626;2024-01-15T00:17:21;11.65;;;4.57;;
75680;SDS011;64294;49.176;16.626;2024-01-15T00:19:46;13.00;;;4.70;;
75680;SDS011;64294;49.176;16.626;2024-01-15T00:22:12;11.85;;;4.95;;
75680;SDS011;64294;49.176;16.626;2024-01-15T00:24:37;10.25;;;4.43;;
75680;SDS011;64294;49.176;16.626;2024-01-15T00:27:02;11.93;;;4.80;;
75680;SDS011;64294;49.176;16.626;2024-01-15T00:29:29;13.93;;;5.30;;
75680;SDS011;64294;49.176;16.626;2024-01-15T00:31:55;16.90;;;6.05;;
75680;SDS011;64294;49.176;16.626;2024-01-15T00:34:20;13.57;;;5.68;;
75680;SDS011;64294;49.176;16.626;2024-01-15T00:36:45;19.75;;;6.20;;
75680;SDS011;64294;49.176;16.626;2024-01-15T00:39:11;15.20;;;7.15;;
75680;SDS011;64294;49.176;16.626;2024-01-15T00:41:36;22.50;;;8.60;;
75680;SDS011;64294;49.176;16.626;2024-01-15T00:44:02;18.13;;;7.03;;
75680;SDS011;64294;49.176;16.626;2024-01-15T00:46:28;17.25;;;6.40;;
75680;SDS011;64294;49.176;16.626;2024-01-15T00:48:55;15.25;;;6.80;;
75680;SDS011;64294;49.176;16.626;2024-01-15T00:51:21;15.35;;;7.75;;
75680;SDS011;64294;49.176;16.626;2024-01-15T00:53:46;15.38;;;7.38;;
75680;SDS011;64294;49.176;16.626;2024-01-15T00:56:11;16.55;;;7.50;;
75680;SDS011;64294;49.176;16.626;2024-01-15T00:58:37;13.10;;;6.38;;
75680;SDS011;64294;49.176;16.626;2024-01-15T01:01:02;16.73;;;6.55;;
75680;SDS011;64294;49.176;16.626;2024-01-15T01:03:31;14.80;;;6.30;;
75680;SDS011;64294;49.176;16.626;2024-01-15T01:05:56;12.02;;;5.65;;
75680;SDS011;64294;49.176;16.626;2024-01-15T01:08:21;12.02;;;4.63;;
75680;SDS011;64294;49.176;16.626;2024-01-15T01:10:47;14.57;;;5.80;;
75680;SDS011;64294;49.176;16.626;2024-01-15T01:13:12;13.32;;;5.32;;
75680;SDS011;64294;49.176;16.626;2024-01-15T01:15:37;11.60;;;5.50;;
75680;SDS011;64294;49.176;16.626;2024-01-15T01:18:03;11.68;;;5.55;;
75680;SDS011;64294;49.176;16.626;2024-01-15T01:20:29;14.52;;;6.50;;
75680;SDS011;64294;49.176;16.626;2024-01-15T01:22:58;15.70;;;6.20;;
75680;SDS011;64294;49.176;16.626;2024-01-15T01:25:23;17.38;;;5.97;;
75680;SDS011;64294;49.176;16.626;2024-01-15T01:27:48;16.52;;;5.60;;
75680;SDS011;64294;49.176;16.626;2024-01-15T01:30:17;18.83;;;6.68;;
75680;SDS011;64294;49.176;16.626;2024-01-15T01:32:42;18.65;;;7.13;;
75680;SDS011;64294;49.176;16.626;2024-01-15T01:35:08;17.05;;;7.05;;
75680;SDS011;64294;49.176;16.626;2024-01-15T01:37:33;15.48;;;7.05;;
75680;SDS011;64294;49.176;16.626;2024-01-15T01:39:59;15.00;;;7.15;;
75680;SDS011;64294;49.176;16.626;2024-01-15T01:42:28;17.83;;;8.52;;
75680;SDS011;64294;49.176;16.626;2024-01-15T01:44:53;15.63;;;8.27;;
75680;SDS011;64294;49.176;16.626;2024-01-15T01:47:18;19.90;;;9.43;;
75680;SDS011;64294;49.176;16.626;2024-01-15T01:49:45;22.20;;;9.70;;
75680;SDS011;64294;49.176;16.626;2024-01-15T01:52:11;17.95;;;8.30;;
75680;SDS011;64294;49.176;16.626;2024-01-15T01:54:39;21.58;;;8.10;;
75680;SDS011;64294;49.176;16.626;2024-01-15T01:57:05;19.73;;;8.05;;
75680;SDS011;64294;49.176;16.626;2024-01-15T01:59:32;17.40;;;8.50;;
75680;SDS011;64294;49.176;16.626;2024-01-15T02:01:59;17.10;;;6.85;;
75680;SDS011;64294;49.176;16.626;2024-01-15T02:04:27;22.88;;;8.25;;
75680;SDS011;64294;49.176;16.626;2024-01-15T02:06:53;15.50;;;6.93;;
75680;SDS011;64294;49.176;16.626;2024-01-15T02:09:18;15.07;;;7.45;;
75680;SDS011;64294;49.176;16.626;2024-01-15T02:11:46;16.58;;;7.63;;
75680;SDS011;64294;49.176;16.626;2024-01-15T02:14:12;20.55;;;8.65;;
75680;SDS011;64294;49.176;16.626;2024-01-15T02:16:37;18.60;;;8.75;;
75680;SDS011;64294;49.176;16.626;2024-01-15T02:22:25;21.48;;;8.55;;
75680;SDS011;64294;49.176;16.626;2024-01-15T02:24:51;21.55;;;7.40;;
75680;SDS011;64294;49.176;16.626;2024-01-15T02:27:16;20.70;;;8.18;;
75680;SDS011;64294;49.176;16.626;2024-01-15T02:29:42;24.85;;;7.97;;
75680;SDS011;64294;49.176;16.626;2024-01-15T02:32:08;21.33;;;8.20;;
75680;SDS011;64294;49.176;16.626;2024-01-15T02:34:36;18.50;;;7.82;;
75680;SDS011;64294;49.176;16.626;2024-01-15T02:37:02;20.85;;;8.35;;
75680;SDS011;64294;49.176;16.626;2024-01-15T02:39:27;19.98;;;8.30;;
75680;SDS011;64294;49.176;16.626;2024-01-15T02:41:54;19.70;;;7.85;;
75680;SDS011;64294;49.176;16.626;2024-01-15T02:44:21;16.90;;;7.75;;
75680;SDS011;64294;49.176;16.626;2024-01-15T02:46:46;19.38;;;8.15;;
75680;SDS011;64294;49.176;16.626;2024-01-15T02:49:11;20.23;;;8.25;;
75680;SDS011;64294;49.176;16.626;2024-01-15T02:51:37;22.85;;;10.05;;
75680;SDS011;64294;49.176;16.626;2024-01-15T02:54:02;21.48;;;9.73;;
75680;SDS011;64294;49.176;16.626;2024-01-15T02:56:28;16.95;;;7.53;;
75680;SDS011;64294;49.176;16.626;2024-01-15T02:58:53;16.77;;;8.52;;
75680;SDS011;64294;49.176;16.626;2024-01-15T03:01:19;19.52;;;8.07;;
75680;SDS011;64294;49.176;16.626;2024-01-15T03:03:45;19.85;;;7.55;;
75680;SDS011;64294;49.176;16.626;2024-01-15T03:06:10;20.98;;;8.48;;
75680;SDS011;64294;49.176;16.626;2024-01-15T03:08:36;18.35;;;7.85;;
75680;SDS011;64294;49.176;16.626;2024-01-15T03:11:04;15.93;;;7.65;;
75680;SDS011;64294;49.176;16.626;2024-01-15T03:13:30;19.63;;;9.43;;
75680;SDS011;64294;49.176;16.626;2024-01-15T03:15:55;23.05;;;9.80;;
75680;SDS011;64294;49.176;16.626;2024-01-15T03:18:21;23.70;;;9.30;;
75680;SDS011;64294;49.176;16.626;2024-01-15T03:20:46;22.70;;;9.75;;
75680;SDS011;64294;49.176;16.626;2024-01-15T03:23:11;22.05;;;8.63;;
75680;SDS011;64294;49.176;16.626;2024-01-15T03:25:37;17.90;;;7.15;;
75680;SDS011;64294;49.176;16.626;2024-01-15T03:28:02;15.98;;;7.25;;
75680;SDS011;64294;49.176;16.626;2024-01-15T03:30:28;14.80;;;6.88;;
75680;SDS011;64294;49.176;16.626;2024-01-15T03:32:53;20.95;;;7.53;;
75680;SDS011;64294;49.176;16.626;2024-01-15T03:35:19;14.75;;;6.78;;
75680;SDS011;64294;49.176;16.626;2024-01-15T03:37:45;23.20;;;8.23;;
75680;SDS011;64294;49.176;16.626;2024-01-15T03:40:11;20.08;;;7.68;;
75680;SDS011;64294;49.176;16.626;2024-01-15T03:42:37;18.60;;;7.88;;
75680;SDS011;64294;49.176;16.626;2024-01-15T03:45:02;23.95;;;7.60;;
75680;SDS011;64294;49.176;16.626;2024-01-15T03:47:30;21.27;;;8.52;;
75680;SDS011;64294;49.176;16.626;2024-01-15T03:49:56;19.35;;;8.15;;
75680;SDS011;64294;49.176;16.626;2024-01-15T03:52:22;19.85;;;7.80;;
75680;SDS011;64294;49.176;16.626;2024-01-15T03:54:47;20.88;;;8.75;;
75680;SDS011;64294;49.176;16.626;2024-01-15T03:57:13;18.58;;;7.40;;
75680;SDS011;64294;49.176;16.626;2024-01-15T03:59:40;16.50;;;7.10;;
75680;SDS011;64294;49.176;16.626;2024-01-15T04:02:06;19.70;;;8.55;;
75680;SDS011;64294;49.176;16.626;2024-01-15T04:04:32;21.13;;;8.25;;
75680;SDS011;64294;49.176;16.626;2024-01-15T04:06:58;20.05;;;7.60;;
75680;SDS011;64294;49.176;16.626;2024-01-15T04:09:23;20.40;;;8.93;;
75680;SDS011;64294;49.176;16.626;2024-01-15T04:11:49;23.58;;;7.85;;
75680;SDS011;64294;49.176;16.626;2024-01-15T04:14:15;21.40;;;7.80;;
75680;SDS011;64294;49.176;16.626;2024-01-15T04:16:43;19.30;;;8.38;;
75680;SDS011;64294;49.176;16.626;2024-01-15T04:19:11;20.02;;;8.23;;
75680;SDS011;64294;49.176;16.626;2024-01-15T04:21:37;25.58;;;8.75;;
75680;SDS011;64294;49.176;16.626;2024-01-15T04:24:04;21.10;;;8.27;;
75680;SDS011;64294;49.176;16.626;2024-01-15T04:26:30;24.77;;;8.98;;
75680;SDS011;64294;49.176;16.626;2024-01-15T04:28:55;21.33;;;8.65;;
75680;SDS011;64294;49.176;16.626;2024-01-15T04:31:22;22.27;;;8.38;;
75680;SDS011;64294;49.176;16.626;2024-01-15T04:33:53;21.55;;;7.65;;
75680;SDS011;64294;49.176;16.626;2024-01-15T04:36:22;21.50;;;8.43;;
75680;SDS011;64294;49.176;16.626;2024-01-15T04:41:43;19.90;;;8.38;;
75680;SDS011;64294;49.176;16.626;2024-01-15T04:44:08;23.05;;;8.85;;
75680;SDS011;64294;49.176;16.626;2024-01-15T04:46:41;23.42;;;8.50;;
75680;SDS011;64294;49.176;16.626;2024-01-15T04:49:08;20.10;;;8.60;;
75680;SDS011;64294;49.176;16.626;2024-01-15T04:51:40;18.75;;;7.38;;
75680;SDS011;64294;49.176;16.626;2024-01-15T04:54:17;18.92;;;7.88;;
75680;SDS011;64294;49.176;16.626;2024-01-15T04:56:44;22.88;;;8.18;;
75680;SDS011;64294;49.176;16.626;2024-01-15T04:59:13;19.17;;;8.25;;
75680;SDS011;64294;49.176;16.626;2024-01-15T05:01:41;17.23;;;7.35;;
75680;SDS011;64294;49.176;16.626;2024-01-15T05:04:07;17.52;;;7.50;;
75680;SDS011;64294;49.176;16.626;2024-01-15T05:06:36;15.55;;;6.93;;
75680;SDS011;64294;49.176;16.626;2024-01-15T05:09:01;19.02;;;7.65;;
75680;SDS011;64294;49.176;16.626;2024-01-15T05:11:28;17.98;;;7.88;;
75680;SDS011;64294;49.176;16.626;2024-01-15T05:14:00;18.40;;;8.10;;
75680;SDS011;64294;49.176;16.626;2024-01-15T05:16:28;21.85;;;8.40;;
75680;SDS011;64294;49.176;16.626;2024-01-15T05:18:58;20.17;;;8.40;;
75680;SDS011;64294;49.176;16.626;2024-01-15T05:21:23;17.27;;;8.38;;
75680;SDS011;64294;49.176;16.626;2024-01-15T05:23:52;19.63;;;7.82;;
75680;SDS011;64294;49.176;16.626;2024-01-15T05:26:17;22.02;;;8.07;;
75680;SDS011;64294;49.176;16.626;2024-01-15T05:28:43;19.02;;;8.23;;
75680;SDS011;64294;49.176;16.626;2024-01-15T05:31:09;20.83;;;8.70;;
75680;SDS011;64294;49.176;16.626;2024-01-15T05:33:35;23.13;;;8.63;;
75680;SDS011;64294;49.176;16.626;2024-01-15T05:36:10;36.50;;;9.55;;
75680;SDS011;64294;49.176;16.626;2024-01-15T05:38:41;20.30;;;8.48;;
75680;SDS011;64294;49.176;16.626;2024-01-15T05:41:20;23.17;;;8.57;;
75680;SDS011;64294;49.176;16.626;2024-01-15T05:43:51;19.30;;;8.93;;
75680;SDS011;64294;49.176;16.626;2024-01-15T05:46:29;25.35;;;9.30;;
75680;SDS011;64294;49.176;16.626;2024-01-15T05:49:07;20.92;;;9.23;;
75680;SDS011;64294;49.176;16.626;2024-01-15T05:55:31;22.33;;;9.50;;
75680;SDS011;64294;49.176;16.626;2024-01-15T05:58:41;22.73;;;8.95;;
75680;SDS011;64294;49.176;16.626;2024-01-15T06:01:15;18.05;;;8.13;;
75680;SDS011;64294;49.176;16.626;2024-01-15T06:03:41;21.60;;;8.88;;
75680;SDS011;64294;49.176;16.626;2024-01-15T06:09:26;25.48;;;11.68;;
75680;SDS011;64294;49.176;16.626;2024-01-15T06:11:53;26.95;;;11.30;;
75680;SDS011;64294;49.176;16.626;2024-01-15T06:14:20;24.63;;;10.27;;
75680;SDS011;64294;49.176;16.626;2024-01-15T06:16:45;39.70;;;16.27;;
75680;SDS011;64294;49.176;16.626;2024-01-15T06:19:14;42.80;;;18.20;;
75680;SDS011;64294;49.176;16.626;2024-01-15T06:21:40;32.63;;;12.80;;
75680;SDS011;64294;49.176;16.626;2024-01-15T06:24:11;35.47;;;14.02;;
75680;SDS011;64294;49.176;16.626;2024-01-15T06:26:38;33.97;;;10.48;;
75680;SDS011;64294;49.176;16.626;2024-01-15T06:29:04;36.83;;;13.70;;
75680;SDS011;64294;49.176;16.626;2024-01-15T06:31:29;28.00;;;11.30;;
75680;SDS011;64294;49.176;16.626;2024-01-15T06:33:55;29.70;;;10.43;;
75680;SDS011;64294;49.176;16.626;2024-01-15T06:36:21;22.42;;;8.40;;
75680;SDS011;64294;49.176;16.626;2024-01-15T06:38:52;24.20;;;8.73;;
75680;SDS011;64294;49.176;16.626;2024-01-15T06:41:33;23.05;;;8.68;;
75680;SDS011;64294;49.176;16.626;2024-01-15T06:43:58;22.05;;;9.10;;
75680;SDS011;64294;49.176;16.626;2024-01-15T06:46:24;28.67;;;10.48;;
75680;SDS011;64294;49.176;16.626;2024-01-15T06:48:50;27.85;;;11.23;;
75680;SDS011;64294;49.176;16.626;2024-01-15T06:51:15;33.08;;;12.07;;
75680;SDS011;64294;49.176;16.626;2024-01-15T06:53:41;31.45;;;11.13;;
75680;SDS011;64294;49.176;16.626;2024-01-15T06:56:06;30.30;;;10.27;;
75680;SDS011;64294;49.176;16.626;2024-01-15T06:58:32;21.77;;;8.88;;
75680;SDS011;64294;49.176;16.626;2024-01-15T07:01:01;23.92;;;8.35;;
75680;SDS011;64294;49.176;16.626;2024-01-15T07:03:27;24.58;;;9.20;;
75680;SDS011;64294;49.176;16.626;2024-01-15T07:05:53;26.10;;;10.13;;
75680;SDS011;64294;49.176;16.626;2024-01-15T07:08:18;24.48;;;9.57;;
75680;SDS011;64294;49.176;16.626;2024-01-15T07:10:52;22.45;;;8.38;;
75680;SDS011;64294;49.176;16.626;2024-01-15T07:13:18;24.55;;;9.20;;
75680;SDS011;64294;49.176;16.626;2024-01-15T07:15:49;18.17;;;7.25;;
75680;SDS011;64294;49.176;16.626;2024-01-15T07:18:15;24.40;;;9.73;;
75680;SDS011;64294;49.176;16.626;2024-01-15T07:20:41;22.48;;;8.85;;
75680;SDS011;64294;49.176;16.626;2024-01-15T07:23:07;22.35;;;8.75;;
75680;SDS011;64294;49.176;16.626;2024-01-15T07:25:33;21.92;;;8.52;;
75680;SDS011;64294;49.176;16.626;2024-01-15T07:28:11;22.38;;;9.85;;
75680;SDS011;64294;49.176;16.626;2024-01-15T07:30:39;24.38;;;8.85;;
75680;SDS011;64294;49.176;16.626;2024-01-15T07:33:05;25.17;;;10.52;;
75680;SDS011;64294;49.176;16.626;2024-01-15T07:35:34;24.88;;;10.10;;
75680;SDS011;64294;49.176;16.626;2024-01-15T07:37:59;27.33;;;10.00;;
75680;SDS011;64294;49.176;16.626;2024-01-15T07:40:25;26.23;;;10.20;;
75680;SDS011;64294;49.176;16.626;2024-01-15T07:42:51;26.17;;;10.25;;
75680;SDS011;64294;49.176;16.626;2024-01-15T07:45:16;26.30;;;10.43;;
75680;SDS011;64294;49.176;16.626;2024-01-15T07:47:43;21.70;;;9.48;;
75680;SDS011;64294;49.176;16.626;2024-01-15T07:50:24;29.63;;;10.20;;
75680;SDS011;64294;49.176;16.626;2024-01-15T07:52:50;27.00;;;10.63;;
75680;SDS011;64294;49.176;16.626;2024-01-15T07:55:16;25.73;;;9.63;;
75680;SDS011;64294;49.176;16.626;2024-01-15T07:57:41;23.17;;;10.05;;
75680;SDS011;64294;49.176;16.626;2024-01-15T08:00:07;22.95;;;9.70;;
75680;SDS011;64294;49.176;16.626;2024-01-15T08:02:34;23.20;;;9.43;;
75680;SDS011;64294;49.176;16.626;2024-01-15T08:04:59;20.55;;;8.55;;
75680;SDS011;64294;49.176;16.626;2024-01-15T08:07:25;20.92;;;8.95;;
75680;SDS011;64294;49.176;16.626;2024-01-15T08:09:51;25.63;;;10.05;;
75680;SDS011;64294;49.176;16.626;2024-01-15T08:12:19;19.35;;;8.80;;
75680;SDS011;64294;49.176;16.626;2024-01-15T08:14:51;22.10;;;8.65;;
75680;SDS011;64294;49.176;16.626;2024-01-15T08:17:16;20.42;;;8.23;;
75680;SDS011;64294;49.176;16.626;2024-01-15T08:19:42;21.90;;;8.43;;
75680;SDS011;64294;49.176;16.626;2024-01-15T08:22:11;20.98;;;8.48;;
75680;SDS011;64294;49.176;16.626;2024-01-15T08:24:37;21.58;;;8.75;;
75680;SDS011;64294;49.176;16.626;2024-01-15T08:27:10;21.00;;;8.80;;
75680;SDS011;64294;49.176;16.626;2024-01-15T08:29:35;19.87;;;8.30;;
75680;SDS011;64294;49.176;16.626;2024-01-15T08:32:01;19.85;;;7.85;;
75680;SDS011;64294;49.176;16.626;2024-01-15T08:34:32;18.90;;;8.18;;
75680;SDS011;64294;49.176;16.626;2024-01-15T08:36:58;18.67;;;7.47;;
75680;SDS011;64294;49.176;16.626;2024-01-15T08:39:23;20.00;;;8.48;;
75680;SDS011;64294;49.176;16.626;2024-01-15T08:41:49;22.92;;;7.82;;
75680;SDS011;64294;49.176;16.626;2024-01-15T08:44:17;16.35;;;7.57;;
75680;SDS011;64294;49.176;16.626;2024-01-15T08:46:43;19.58;;;8.07;;
75680;SDS011;64294;49.176;16.626;2024-01-15T08:49:11;18.95;;;7.43;;
75680;SDS011;64294;49.176;16.626;2024-01-15T08:51:37;28.38;;;8.48;;
75680;SDS011;64294;49.176;16.626;2024-01-15T08:54:04;20.85;;;7.70;;
75680;SDS011;64294;49.176;16.626;2024-01-15T08:56:32;19.92;;;8.80;;
75680;SDS011;64294;49.176;16.626;2024-01-15T08:58:57;19.77;;;8.20;;
75680;SDS011;64294;49.176;16.626;2024-01-15T09:01:25;23.83;;;8.23;;
75680;SDS011;64294;49.176;16.626;2024-01-15T09:03:51;19.17;;;7.55;;
75680;SDS011;64294;49.176;16.626;2024-01-15T09:06:17;21.73;;;8.07;;
75680;SDS011;64294;49.176;16.626;2024-01-15T09:08:42;18.88;;;7.82;;
75680;SDS011;64294;49.176;16.626;2024-01-15T09:11:07;16.60;;;7.50;;
75680;SDS011;64294;49.176;16.626;2024-01-15T09:13:33;19.98;;;7.40;;
75680;SDS011;64294;49.176;16.626;2024-01-15T09:15:59;17.98;;;7.68;;
75680;SDS011;64294;49.176;16.626;2024-01-15T09:18:25;18.17;;;7.55;;
75680;SDS011;64294;49.176;16.626;2024-01-15T09:20:53;19.52;;;7.70;;
75680;SDS011;64294;49.176;16.626;2024-01-15T09:23:19;20.80;;;7.55;;
75680;SDS011;64294;49.176;16.626;2024-01-15T09:25:44;19.30;;;8.43;;
75680;SDS011;64294;49.176;16.626;2024-01-15T09:28:10;17.42;;;8.48;;
75680;SDS011;64294;49.176;16.626;2024-01-15T09:30:35;19.02;;;7.97;;
75680;SDS011;64294;49.176;16.626;2024-01-15T09:33:01;17.10;;;7.90;;
75680;SDS011;64294;49.176;16.626;2024-01-15T09:35:30;16.05;;;7.05;;
75680;SDS011;64294;49.176;16.626;2024-01-15T09:37:55;16.63;;;8.15;;
75680;SDS011;64294;49.176;16.626;2024-01-15T09:40:24;20.30;;;8.15;;
75680;SDS011;64294;49.176;16.626;2024-01-15T09:42:55;25.08;;;10.35;;
75680;SDS011;64294;49.176;16.626;2024-01-15T09:45:21;23.88;;;9.45;;
75680;SDS011;64294;49.176;16.626;2024-01-15T09:47:46;18.00;;;7.22;;
75680;SDS011;64294;49.176;16.626;2024-01-15T09:50:12;32.30;;;11.15;;
75680;SDS011;64294;49.176;16.626;2024-01-15T09:52:40;24.95;;;9.60;;
75680;SDS011;64294;49.176;16.626;2024-01-15T09:55:06;16.30;;;7.75;;
75680;SDS011;64294;49.176;16.626;2024-01-15T09:57:34;15.20;;;7.28;;
75680;SDS011;64294;49.176;16.626;2024-01-15T10:00:01;27.48;;;8.25;;
75680;SDS011;64294;49.176;16.626;2024-01-15T10:02:30;25.02;;;8.88;;
75680;SDS011;64294;49.176;16.626;2024-01-15T10:05:07;26.60;;;9.93;;
75680;SDS011;64294;49.176;16.626;2024-01-15T10:07:34;17.95;;;8.13;;
75680;SDS011;64294;49.176;16.626;2024-01-15T10:10:02;18.10;;;8.18;;
75680;SDS011;64294;49.176;16.626;2024-01-15T10:12:32;17.15;;;7.90;;
75680;SDS011;64294;49.176;16.626;2024-01-15T10:14:58;15.32;;;7.03;;
75680;SDS011;64294;49.176;16.626;2024-01-15T10:17:24;17.02;;;7.15;;
75680;SDS011;64294;49.176;16.626;2024-01-15T10:19:52;16.38;;;7.50;;
75680;SDS011;64294;49.176;16.626;2024-01-15T10:22:17;17.70;;;7.38;;
75680;SDS011;64294;49.176;16.626;2024-01-15T10:24:43;15.77;;;7.45;;
75680;SDS011;64294;49.176;16.626;2024-01-15T10:27:08;14.35;;;6.40;;
75680;SDS011;64294;49.176;16.626;2024-01-15T10:29:35;15.30;;;6.47;;
75680;SDS011;64294;49.176;16.626;2024-01-15T10:32:01;17.23;;;7.13;;
75680;SDS011;64294;49.176;16.626;2024-01-15T10:34:27;16.70;;;7.28;;
75680;SDS011;64294;49.176;16.626;2024-01-15T10:36:53;16.52;;;6.75;;
75680;SDS011;64294;49.176;16.626;2024-01-15T10:39:22;15.57;;;6.70;;
75680;SDS011;64294;49.176;16.626;2024-01-15T10:41:51;14.63;;;5.85;;
75680;SDS011;64294;49.176;16.626;2024-01-15T10:44:16;15.13;;;5.80;;
75680;SDS011;64294;49.176;16.626;2024-01-15T10:46:44;14.60;;;6.60;;
75680;SDS011;64294;49.176;16.626;2024-01-15T10:49:10;12.50;;;5.85;;
75680;SDS011;64294;49.176;16.626;2024-01-15T10:54:11;17.50;;;6.53;;
75680;SDS011;64294;49.176;16.626;2024-01-15T10:56:41;18.35;;;7.20;;
75680;SDS011;64294;49.176;16.626;2024-01-15T10:59:20;17.60;;;7.18;;
75680;SDS011;64294;49.176;16.626;2024-01-15T11:01:47;13.90;;;5.28;;
75680;SDS011;64294;49.176;16.626;2024-01-15T11:04:19;14.82;;;6.47;;
75680;SDS011;64294;49.176;16.626;2024-01-15T11:06:52;16.73;;;6.40;;
75680;SDS011;64294;49.176;16.626;2024-01-15T11:09:21;21.92;;;7.10;;
75680;SDS011;64294;49.176;16.626;2024-01-15T11:11:50;21.63;;;6.88;;
75680;SDS011;64294;49.176;16.626;2024-01-15T11:14:38;14.95;;;5.90;;
75680;SDS011;64294;49.176;16.626;2024-01-15T11:17:03;16.70;;;6.82;;
75680;SDS011;64294;49.176;16.626;2024-01-15T11:20:05;11.43;;;5.68;;
75680;SDS011;64294;49.176;16.626;2024-01-15T11:24:55;14.70;;;5.55;;
75680;SDS011;64294;49.176;16.626;2024-01-15T11:28:06;13.18;;;5.20;;
75680;SDS011;64294;49.176;16.626;2024-01-15T11:30:16;11.18;;;5.07;;
75680;SDS011;64294;49.176;16.626;2024-01-15T11:32:47;11.95;;;5.00;;
75680;SDS011;64294;49.176;16.626;2024-01-15T11:35:16;16.23;;;5.53;;
75680;SDS011;64294;49.176;16.626;2024-01-15T11:40:19;8.50;;;4.32;;
75680;SDS011;64294;49.176;16.626;2024-01-15T11:43:03;13.00;;;4.78;;
75680;SDS011;64294;49.176;16.626;2024-01-15T11:45:34;11.32;;;5.05;;
75680;SDS011;64294;49.176;16.626;2024-01-15T11:50:50;11.88;;;4.40;;
75680;SDS011;64294;49.176;16.626;2024-01-15T11:55:57;10.73;;;4.40;;
75680;SDS011;64294;49.176;16.626;2024-01-15T11:58:26;14.88;;;4.47;;
75680;SDS011;64294;49.176;16.626;2024-01-15T12:00:52;9.50;;;4.28;;
75680;SDS011;64294;49.176;16.626;2024-01-15T12:03:20;14.65;;;5.10;;
75680;SDS011;64294;49.176;16.626;2024-01-15T12:05:49;13.23;;;5.15;;
75680;SDS011;64294;49.176;16.626;2024-01-15T12:08:26;12.95;;;4.22;;
75680;SDS011;64294;49.176;16.626;2024-01-15T12:10:53;14.27;;;4.10;;
75680;SDS011;64294;49.176;16.626;2024-01-15T12:13:19;25.63;;;7.20;;
75680;SDS011;64294;49.176;16.626;2024-01-15T12:15:46;17.02;;;6.60;;
75680;SDS011;64294;49.176;16.626;2024-01-15T12:18:13;13.55;;;5.10;;
75680;SDS011;64294;49.176;16.626;2024-01-15T12:20:41;15.85;;;5.50;;
75680;SDS011;64294;49.176;16.626;2024-01-15T12:23:11;12.68;;;4.80;;
75680;SDS011;64294;49.176;16.626;2024-01-15T12:25:38;19.58;;;5.13;;
75680;SDS011;64294;49.176;16.626;2024-01-15T12:28:04;12.25;;;5.10;;
75680;SDS011;64294;49.176;16.626;2024-01-15T12:30:31;10.95;;;4.32;;
75680;SDS011;64294;49.176;16.626;2024-01-15T12:33:06;8.15;;;4.30;;
75680;SDS011;64294;49.176;16.626;2024-01-15T12:35:33;8.00;;;4.10;;
75680;SDS011;64294;49.176;16.626;2024-01-15T12:37:59;10.73;;;3.95;;
75680;SDS011;64294;49.176;16.626;2024-01-15T12:40:27;10.30;;;3.83;;
75680;SDS011;64294;49.176;16.626;2024-01-15T12:42:53;9.77;;;4.30;;
75680;SDS011;64294;49.176;16.626;2024-01-15T12:45:18;13.18;;;4.07;;
75680;SDS011;64294;49.176;16.626;2024-01-15T12:47:47;10.57;;;4.43;;
75680;SDS011;64294;49.176;16.626;2024-01-15T12:50:16;11.45;;;4.68;;
75680;SDS011;64294;49.176;16.626;2024-01-15T12:52:41;9.98;;;4.43;;
75680;SDS011;64294;49.176;16.626;2024-01-15T12:55:07;11.73;;;4.63;;
75680;SDS011;64294;49.176;16.626;2024-01-15T12:57:34;13.05;;;4.72;;
75680;SDS011;64294;49.176;16.626;2024-01-15T13:00:00;11.90;;;4.53;;
75680;SDS011;64294;49.176;16.626;2024-01-15T13:02:26;11.45;;;4.85;;
75680;SDS011;64294;49.176;16.626;2024-01-15T13:04:51;9.70;;;4.35;;
75680;SDS011;64294;49.176;16.626;2024-01-15T13:07:17;11.43;;;4.07;;
75680;SDS011;64294;49.176;16.626;2024-01-15T13:09:42;10.95;;;4.43;;
75680;SDS011;64294;49.176;16.626;2024-01-15T13:12:08;10.57;;;4.32;;
75680;SDS011;64294;49.176;16.626;2024-01-15T13:14:33;10.70;;;4.40;;
75680;SDS011;64294;49.176;16.626;2024-01-15T13:16:59;12.05;;;4.50;;
75680;SDS011;64294;49.176;16.626;2024-01-15T13:19:24;10.63;;;4.28;;
75680;SDS011;64294;49.176;16.626;2024-01-15T13:21:50;8.68;;;4.35;;
75680;SDS011;64294;49.176;16.626;2024-01-15T13:24:16;10.18;;;4.30;;
75680;SDS011;64294;49.176;16.626;2024-01-15T13:26:42;13.30;;;5.28;;
75680;SDS011;64294;49.176;16.626;2024-01-15T13:29:07;11.40;;;4.45;;
75680;SDS011;64294;49.176;16.626;2024-01-15T13:31:33;10.63;;;4.50;;
75680;SDS011;64294;49.176;16.626;2024-01-15T13:33:59;13.43;;;4.97;;
75680;SDS011;64294;49.176;16.626;2024-01-15T13:36:25;13.75;;;5.15;;
75680;SDS011;64294;49.176;16.626;2024-01-15T13:38:51;11.20;;;4.53;;
75680;SDS011;64294;49.176;16.626;2024-01-15T13:41:18;10.73;;;4.35;;
75680;SDS011;64294;49.176;16.626;2024-01-15T13:43:48;11.75;;;4.50;;
75680;SDS011;64294;49.176;16.626;2024-01-15T13:46:15;15.00;;;5.03;;
75680;SDS011;64294;49.176;16.626;2024-01-15T13:48:42;12.50;;;4.30;;
75680;SDS011;64294;49.176;16.626;2024-01-15T13:51:08;11.13;;;4.43;;
75680;SDS011;64294;49.176;16.626;2024-01-15T13:53:34;9.48;;;4.40;;
75680;SDS011;64294;49.176;16.626;2024-01-15T13:55:59;13.18;;;4.38;;
75680;SDS011;64294;49.176;16.626;2024-01-15T13:58:25;11.75;;;4.82;;
75680;SDS011;64294;49.176;16.626;2024-01-15T14:00:51;10.00;;;4.50;;
75680;SDS011;64294;49.176;16.626;2024-01-15T14:03:17;11.93;;;4.82;;
75680;SDS011;64294;49.176;16.626;2024-01-15T14:05:45;11.10;;;4.38;;
75680;SDS011;64294;49.176;16.626;2024-01-15T14:08:11;12.18;;;4.75;;
75680;SDS011;64294;49.176;16.626;2024-01-15T14:10:36;9.10;;;4.35;;
75680;SDS011;64294;49.176;16.626;2024-01-15T14:13:02;12.10;;;4.45;;
75680;SDS011;64294;49.176;16.626;2024-01-15T14:15:30;9.93;;;4.90;;
75680;SDS011;64294;49.176;16.626;2024-01-15T14:17:55;12.93;;;5.00;;
75680;SDS011;64294;49.176;16.626;2024-01-15T14:20:20;10.18;;;4.95;;
75680;SDS011;64294;49.176;16.626;2024-01-15T14:22:48;10.43;;;4.38;;
75680;SDS011;64294;49.176;16.626;2024-01-15T14:25:17;12.27;;;4.65;;
75680;SDS011;64294;49.176;16.626;2024-01-15T14:27:42;10.77;;;5.00;;
75680;SDS011;64294;49.176;16.626;2024-01-15T14:30:08;14.90;;;5.50;;
75680;SDS011;64294;49.176;16.626;2024-01-15T14:32:34;10.93;;;5.07;;
75680;SDS011;64294;49.176;16.626;2024-01-15T14:34:59;10.52;;;4.97;;
75680;SDS011;64294;49.176;16.626;2024-01-15T14:37:32;12.07;;;5.47;;
75680;SDS011;64294;49.176;16.626;2024-01-15T14:39:58;10.90;;;4.57;;
75680;SDS011;64294;49.176;16.626;2024-01-15T14:42:26;9.95;;;5.38;;
75680;SDS011;64294;49.176;16.626;2024-01-15T14:44:57;10.35;;;4.80;;
75680;SDS011;64294;49.176;16.626;2024-01-15T14:47:23;12.18;;;5.55;;